createdAt,value
2022-09-30T00:00:48.678Z,14.38
2022-09-30T00:01:51.353Z,14.38
2022-09-30T00:02:52.895Z,14.38
2022-09-30T00:03:54.463Z,14.38
2022-09-30T00:04:56.048Z,14.38
2022-09-30T00:06:04.330Z,14.39
2022-09-30T00:07:09.170Z,14.38
2022-09-30T00:08:10.659Z,14.38
2022-09-30T00:09:12.933Z,14.38
2022-09-30T00:10:17.174Z,14.38
2022-09-30T00:11:31.350Z,14.38
2022-09-30T00:12:32.862Z,14.37
2022-09-30T00:13:35.054Z,14.38
2022-09-30T00:14:36.500Z,14.37
2022-09-30T00:15:37.987Z,14.37
2022-09-30T00:16:39.523Z,14.38
2022-09-30T00:17:41.013Z,14.37
2022-09-30T00:18:42.557Z,14.37
2022-09-30T00:19:43.967Z,14.37
2022-09-30T00:20:45.421Z,14.36
2022-09-30T00:21:46.982Z,14.36
2022-09-30T00:22:48.410Z,14.35
2022-09-30T00:23:49.827Z,14.35
2022-09-30T00:24:51.313Z,14.33
2022-09-30T00:25:57.270Z,14.33
2022-09-30T00:26:58.751Z,14.34
2022-09-30T00:28:00.291Z,14.34
2022-09-30T00:29:01.779Z,14.34
2022-09-30T00:30:03.664Z,14.34
2022-09-30T00:31:07.240Z,14.33
2022-09-30T00:32:08.683Z,14.34
2022-09-30T00:33:10.102Z,14.34
2022-09-30T00:34:12.159Z,14.34
2022-09-30T00:35:13.619Z,14.35
2022-09-30T00:36:15.124Z,14.35
2022-09-30T00:37:16.838Z,14.36
2022-09-30T00:38:18.254Z,14.36
2022-09-30T00:39:20.850Z,14.36
2022-09-30T00:40:22.647Z,14.35
2022-09-30T00:41:25.071Z,14.36
2022-09-30T00:42:29.550Z,14.36
2022-09-30T00:43:51.644Z,14.36
2022-09-30T00:45:02.154Z,14.36
2022-09-30T00:46:03.638Z,14.37
2022-09-30T00:47:06.964Z,14.36
2022-09-30T00:48:10.826Z,14.37
2022-09-30T00:49:13.944Z,14.37
2022-09-30T00:50:18.032Z,14.37
2022-09-30T00:51:39.163Z,14.37
2022-09-30T00:52:40.979Z,14.36
2022-09-30T00:53:50.783Z,14.38
2022-09-30T00:54:52.815Z,14.38
2022-09-30T00:56:07.604Z,14.38
2022-09-30T00:57:09.110Z,14.38
2022-09-30T00:58:11.211Z,14.38
2022-09-30T00:59:16.892Z,14.38
2022-09-30T01:00:18.395Z,14.37
2022-09-30T01:01:19.843Z,14.36
2022-09-30T01:02:21.471Z,14.36
2022-09-30T01:03:23.102Z,14.36
2022-09-30T01:04:24.646Z,14.34
2022-09-30T01:05:26.493Z,14.34
2022-09-30T01:06:28.056Z,14.35
2022-09-30T01:07:29.523Z,14.33
2022-09-30T01:08:31.232Z,14.31
2022-09-30T01:09:36.164Z,14.31
2022-09-30T01:10:37.769Z,14.30
2022-09-30T01:11:39.311Z,14.30
2022-09-30T01:12:40.767Z,14.29
2022-09-30T01:13:43.069Z,14.29
2022-09-30T01:14:44.882Z,14.29
2022-09-30T01:15:46.289Z,14.28
2022-09-30T01:16:53.809Z,14.30
2022-09-30T01:17:57.948Z,14.29
2022-09-30T01:19:17.815Z,14.28
2022-09-30T01:20:36.878Z,14.29
2022-09-30T01:21:54.830Z,14.29
2022-09-30T01:23:05.187Z,14.28
2022-09-30T01:24:25.087Z,14.28
2022-09-30T01:25:47.016Z,14.29
2022-09-30T01:26:48.428Z,14.29
2022-09-30T01:28:09.556Z,14.30
2022-09-30T01:29:13.671Z,14.30
2022-09-30T01:30:21.924Z,14.31
2022-09-30T01:31:27.674Z,14.31
2022-09-30T01:32:48.526Z,14.31
2022-09-30T01:34:16.505Z,14.33
2022-09-30T01:35:20.831Z,14.33
2022-09-30T01:36:25.518Z,14.33
2022-09-30T01:37:29.948Z,14.33
2022-09-30T01:38:49.864Z,14.33
2022-09-30T01:39:53.637Z,14.33
2022-09-30T01:40:55.049Z,14.33
2022-09-30T01:42:10.823Z,14.32
2022-09-30T01:43:14.527Z,14.32
2022-09-30T01:44:31.179Z,14.31
2022-09-30T01:45:34.001Z,14.32
2022-09-30T01:46:44.228Z,14.32
2022-09-30T01:47:47.095Z,14.33
2022-09-30T01:49:06.834Z,14.32
2022-09-30T01:50:16.452Z,14.31
2022-09-30T01:51:23.251Z,14.32
2022-09-30T01:52:43.047Z,14.32
2022-09-30T01:53:51.916Z,14.33
2022-09-30T01:54:55.966Z,14.32
2022-09-30T01:56:12.528Z,14.31
2022-09-30T01:57:19.115Z,14.31
2022-09-30T01:58:20.583Z,14.30
2022-09-30T01:59:26.618Z,14.29
2022-09-30T02:00:28.125Z,14.29
2022-09-30T02:01:31.713Z,14.27
2022-09-30T02:02:42.326Z,14.27
2022-09-30T02:03:54.163Z,14.27
2022-09-30T02:05:02.945Z,14.25
2022-09-30T02:06:06.062Z,14.23
2022-09-30T02:07:09.197Z,14.23
2022-09-30T02:08:16.813Z,14.22
2022-09-30T02:09:28.406Z,14.20
2022-09-30T02:10:40.539Z,14.19
2022-09-30T02:11:42.322Z,14.19
2022-09-30T02:12:50.598Z,14.17
2022-09-30T02:14:07.092Z,14.17
2022-09-30T02:15:09.601Z,14.15
2022-09-30T02:16:15.080Z,14.13
2022-09-30T02:17:21.210Z,14.13
2022-09-30T02:18:29.612Z,14.11
2022-09-30T02:19:31.034Z,14.11
2022-09-30T02:20:33.180Z,14.08
2022-09-30T02:21:35.883Z,14.09
2022-09-30T02:22:43.252Z,14.07
2022-09-30T02:23:44.775Z,14.05
2022-09-30T02:24:47.028Z,14.04
2022-09-30T02:25:49.431Z,14.04
2022-09-30T02:26:50.902Z,14.02
2022-09-30T02:27:53.609Z,14.01
2022-09-30T02:28:59.235Z,14.01
2022-09-30T02:30:01.096Z,13.98
2022-09-30T02:31:02.827Z,13.98
2022-09-30T02:32:06.257Z,13.96
2022-09-30T02:33:09.063Z,13.95
2022-09-30T02:34:11.796Z,13.94
2022-09-30T02:35:27.167Z,13.93
2022-09-30T02:36:28.702Z,13.90
2022-09-30T02:37:32.047Z,13.90
2022-09-30T02:38:37.129Z,13.90
2022-09-30T02:39:47.510Z,13.87
2022-09-30T02:40:50.584Z,13.82
2022-09-30T02:41:53.227Z,13.81
2022-09-30T02:42:54.665Z,13.78
2022-09-30T02:43:56.404Z,13.77
2022-09-30T02:45:01.759Z,13.74
2022-09-30T02:46:17.671Z,13.74
2022-09-30T02:47:37.763Z,13.71
2022-09-30T02:48:58.062Z,13.68
2022-09-30T02:50:05.630Z,13.66
2022-09-30T02:51:11.296Z,13.64
2022-09-30T02:52:21.034Z,13.62
2022-09-30T02:53:33.622Z,13.60
2022-09-30T02:54:41.283Z,13.58
2022-09-30T02:55:42.746Z,13.55
2022-09-30T02:56:48.546Z,13.53
2022-09-30T02:57:52.998Z,13.53
2022-09-30T02:58:56.161Z,13.51
2022-09-30T02:59:57.800Z,13.49
2022-09-30T03:00:59.348Z,13.48
2022-09-30T03:02:01.138Z,13.45
2022-09-30T03:03:05.255Z,13.44
2022-09-30T03:04:06.695Z,13.43
2022-09-30T03:05:08.711Z,13.41
2022-09-30T03:06:10.384Z,13.42
2022-09-30T03:07:11.832Z,13.39
2022-09-30T03:08:13.297Z,13.39
2022-09-30T03:09:15.498Z,13.38
2022-09-30T03:10:17.387Z,13.38
2022-09-30T03:11:19.835Z,13.36
2022-09-30T03:12:36.573Z,13.36
2022-09-30T03:13:56.519Z,13.35
2022-09-30T03:15:04.419Z,13.33
2022-09-30T03:16:13.954Z,13.32
2022-09-30T03:17:24.071Z,13.30
2022-09-30T03:18:28.077Z,13.30
2022-09-30T03:19:38.678Z,13.27
2022-09-30T03:20:46.074Z,13.27
2022-09-30T03:21:59.797Z,13.26
2022-09-30T03:23:19.707Z,13.24
2022-09-30T03:24:39.698Z,13.23
2022-09-30T03:25:59.467Z,13.21
2022-09-30T03:27:09.686Z,13.19
2022-09-30T03:28:14.506Z,13.17
2022-09-30T03:29:21.376Z,13.16
2022-09-30T03:30:26.943Z,13.14
2022-09-30T03:31:46.658Z,13.14
2022-09-30T03:32:54.267Z,13.13
2022-09-30T03:33:57.970Z,13.11
2022-09-30T03:35:01.529Z,13.10
2022-09-30T03:36:03.095Z,13.09
2022-09-30T03:37:10.515Z,13.09
2022-09-30T03:38:12.850Z,13.08
2022-09-30T03:39:23.955Z,13.07
2022-09-30T03:40:51.920Z,13.06
2022-09-30T03:41:57.024Z,13.04
2022-09-30T03:43:04.931Z,13.02
2022-09-30T03:44:24.744Z,13.01
2022-09-30T03:45:26.159Z,13.00
2022-09-30T03:46:27.653Z,12.97
2022-09-30T03:47:29.671Z,12.95
2022-09-30T03:48:31.131Z,12.93
2022-09-30T03:49:52.825Z,12.91
2022-09-30T03:50:54.327Z,12.85
2022-09-30T03:51:58.698Z,12.82
2022-09-30T03:53:00.725Z,12.81
2022-09-30T03:54:02.172Z,12.80
2022-09-30T03:55:04.475Z,12.79
2022-09-30T03:56:05.998Z,12.78
2022-09-30T03:57:07.739Z,12.77
2022-09-30T03:58:09.198Z,12.76
2022-09-30T03:59:11.791Z,12.74
2022-09-30T04:00:13.437Z,12.73
2022-09-30T04:01:19.212Z,12.72
2022-09-30T04:02:21.109Z,12.70
2022-09-30T04:03:22.904Z,12.70
2022-09-30T04:04:24.374Z,12.68
2022-09-30T04:05:25.820Z,12.65
2022-09-30T04:06:27.307Z,12.65
2022-09-30T04:07:28.788Z,12.62
2022-09-30T04:08:33.725Z,12.62
2022-09-30T04:09:35.503Z,12.61
2022-09-30T04:10:37.066Z,12.59
2022-09-30T04:11:38.514Z,12.59
2022-09-30T04:12:39.971Z,12.58
2022-09-30T04:13:41.556Z,12.57
2022-09-30T04:14:43.265Z,12.56
2022-09-30T04:15:44.706Z,12.56
2022-09-30T04:16:48.637Z,12.56
2022-09-30T04:17:52.101Z,12.54
2022-09-30T04:18:53.543Z,12.55
2022-09-30T04:19:55.011Z,12.53
2022-09-30T04:20:56.435Z,12.52
2022-09-30T04:21:58.156Z,12.51
2022-09-30T04:23:00.143Z,12.51
2022-09-30T04:24:01.666Z,12.49
2022-09-30T04:25:03.139Z,12.49
2022-09-30T04:26:05.575Z,12.49
2022-09-30T04:27:07.074Z,12.48
2022-09-30T04:28:08.575Z,12.47
2022-09-30T04:29:10.063Z,12.46
2022-09-30T04:30:11.516Z,12.45
2022-09-30T04:31:13.145Z,12.42
2022-09-30T04:32:14.716Z,12.41
2022-09-30T04:33:16.263Z,12.38
2022-09-30T04:34:17.700Z,12.36
2022-09-30T04:35:19.615Z,12.34
2022-09-30T04:36:21.138Z,12.26
2022-09-30T04:37:22.727Z,12.23
2022-09-30T04:38:24.655Z,12.22
2022-09-30T04:39:26.140Z,12.19
2022-09-30T04:40:27.571Z,12.18
2022-09-30T04:41:29.345Z,12.17
2022-09-30T04:42:30.810Z,12.16
2022-09-30T04:43:32.373Z,12.14
2022-09-30T04:44:35.311Z,12.15
2022-09-30T04:45:36.796Z,12.13
2022-09-30T04:46:38.365Z,12.12
2022-09-30T04:47:48.976Z,12.12
2022-09-30T04:48:50.441Z,12.12
2022-09-30T04:49:51.983Z,12.10
2022-09-30T04:50:53.954Z,12.08
2022-09-30T04:51:55.439Z,12.07
2022-09-30T04:52:57.289Z,12.06
2022-09-30T04:53:58.975Z,12.06
2022-09-30T04:55:00.445Z,12.04
2022-09-30T04:56:02.027Z,12.04
2022-09-30T04:57:03.521Z,12.04
2022-09-30T04:58:04.998Z,12.03
2022-09-30T04:59:07.043Z,12.03
2022-09-30T05:00:09.545Z,12.02
2022-09-30T05:01:11.841Z,12.02
2022-09-30T05:02:13.857Z,12.00
2022-09-30T05:03:15.319Z,12.01
2022-09-30T05:04:16.891Z,11.99
2022-09-30T05:05:18.491Z,11.99
2022-09-30T05:06:20.900Z,11.95
2022-09-30T05:07:22.415Z,11.94
2022-09-30T05:08:24.007Z,11.93
2022-09-30T05:09:25.673Z,11.90
2022-09-30T05:10:27.362Z,11.89
2022-09-30T05:11:29.594Z,11.90
2022-09-30T05:12:31.999Z,11.89
2022-09-30T05:13:34.163Z,11.89
2022-09-30T05:14:35.704Z,11.88
2022-09-30T05:15:37.138Z,11.86
2022-09-30T05:16:38.734Z,11.82
2022-09-30T05:17:40.279Z,11.82
2022-09-30T05:18:45.832Z,11.81
2022-09-30T05:19:47.801Z,11.81
2022-09-30T05:20:49.759Z,11.81
2022-09-30T05:21:52.512Z,11.81
2022-09-30T05:22:54.890Z,11.79
2022-09-30T05:23:56.469Z,11.79
2022-09-30T05:24:58.194Z,11.78
2022-09-30T05:26:00.025Z,11.77
2022-09-30T05:27:01.903Z,11.77
2022-09-30T05:28:03.357Z,11.76
2022-09-30T05:29:04.815Z,11.77
2022-09-30T05:30:06.712Z,11.75
2022-09-30T05:31:08.324Z,11.75
2022-09-30T05:32:09.867Z,11.75
2022-09-30T05:33:14.472Z,11.74
2022-09-30T05:34:16.840Z,11.72
2022-09-30T05:35:18.292Z,11.72
2022-09-30T05:36:19.753Z,11.73
2022-09-30T05:37:21.424Z,11.72
2022-09-30T05:38:22.914Z,11.71
2022-09-30T05:39:24.429Z,11.68
2022-09-30T05:40:25.908Z,11.69
2022-09-30T05:41:27.638Z,11.69
2022-09-30T05:42:30.839Z,11.67
2022-09-30T05:43:32.911Z,11.66
2022-09-30T05:44:34.386Z,11.66
2022-09-30T05:45:35.930Z,11.66
2022-09-30T05:46:37.435Z,11.65
2022-09-30T05:47:39.241Z,11.65
2022-09-30T05:48:40.674Z,11.65
2022-09-30T05:49:42.138Z,11.65
2022-09-30T05:50:43.601Z,11.66
2022-09-30T05:51:45.063Z,11.66
2022-09-30T05:52:46.656Z,11.66
2022-09-30T05:53:48.207Z,11.66
2022-09-30T05:54:50.604Z,11.67
2022-09-30T05:55:52.223Z,11.68
2022-09-30T05:56:53.645Z,11.69
2022-09-30T05:57:55.538Z,11.70
2022-09-30T05:58:56.986Z,11.69
2022-09-30T05:59:58.432Z,11.67
2022-09-30T06:01:09.234Z,11.68
2022-09-30T06:02:14.196Z,11.69
2022-09-30T06:03:15.918Z,11.69
2022-09-30T06:04:17.966Z,11.70
2022-09-30T06:05:19.394Z,11.71
2022-09-30T06:06:21.243Z,11.72
2022-09-30T06:07:22.867Z,11.73
2022-09-30T06:08:24.439Z,11.73
2022-09-30T06:09:26.382Z,11.74
2022-09-30T06:10:28.302Z,11.76
2022-09-30T06:11:29.898Z,11.76
2022-09-30T06:12:31.362Z,11.78
2022-09-30T06:13:33.202Z,11.81
2022-09-30T06:14:34.620Z,11.81
2022-09-30T06:15:39.692Z,11.84
2022-09-30T06:16:41.326Z,11.88
2022-09-30T06:17:43.397Z,11.91
2022-09-30T06:18:44.871Z,11.94
2022-09-30T06:19:46.363Z,11.96
2022-09-30T06:20:47.824Z,12.00
2022-09-30T06:21:49.287Z,12.03
2022-09-30T06:22:50.797Z,12.07
2022-09-30T06:23:52.278Z,12.11
2022-09-30T06:24:55.483Z,12.14
2022-09-30T06:25:58.053Z,12.17
2022-09-30T06:27:00.115Z,12.20
2022-09-30T06:28:02.590Z,12.22
2022-09-30T06:29:04.019Z,12.27
2022-09-30T06:30:06.078Z,12.30
2022-09-30T06:31:07.998Z,12.34
2022-09-30T06:32:09.499Z,12.38
2022-09-30T06:33:11.654Z,12.42
2022-09-30T06:34:13.679Z,12.46
2022-09-30T06:35:15.224Z,12.49
2022-09-30T06:36:17.233Z,12.54
2022-09-30T06:37:19.190Z,12.57
2022-09-30T06:38:22.727Z,12.62
2022-09-30T06:39:24.327Z,12.65
2022-09-30T06:40:26.101Z,12.69
2022-09-30T06:41:28.048Z,12.74
2022-09-30T06:42:29.550Z,12.76
2022-09-30T06:43:37.120Z,12.82
2022-09-30T06:44:52.823Z,12.86
2022-09-30T06:46:05.962Z,12.91
2022-09-30T06:47:22.592Z,12.96
2022-09-30T06:48:37.511Z,13.01
2022-09-30T06:49:48.713Z,13.07
2022-09-30T06:51:01.421Z,13.12
2022-09-30T06:52:04.071Z,13.17
2022-09-30T06:53:06.814Z,13.23
2022-09-30T06:54:09.120Z,13.29
2022-09-30T06:55:10.811Z,13.32
2022-09-30T06:56:12.835Z,13.38
2022-09-30T06:57:14.277Z,13.42
2022-09-30T06:58:15.848Z,13.48
2022-09-30T06:59:17.395Z,13.52
2022-09-30T07:00:18.840Z,13.58
2022-09-30T07:01:21.047Z,13.65
2022-09-30T07:02:22.735Z,13.69
2022-09-30T07:03:25.018Z,13.74
2022-09-30T07:04:26.474Z,13.80
2022-09-30T07:05:27.886Z,13.86
2022-09-30T07:06:29.362Z,13.90
2022-09-30T07:07:34.429Z,13.98
2022-09-30T07:08:36.143Z,14.03
2022-09-30T07:09:37.811Z,14.08
2022-09-30T07:10:39.693Z,14.11
2022-09-30T07:11:41.156Z,14.19
2022-09-30T07:12:42.651Z,14.25
2022-09-30T07:13:45.925Z,14.32
2022-09-30T07:14:47.861Z,14.37
2022-09-30T07:15:51.178Z,14.46
2022-09-30T07:16:53.455Z,14.50
2022-09-30T07:17:56.683Z,14.58
2022-09-30T07:18:59.848Z,14.61
2022-09-30T07:20:01.480Z,14.66
2022-09-30T07:21:02.983Z,14.73
2022-09-30T07:22:22.971Z,14.78
2022-09-30T07:23:27.327Z,14.87
2022-09-30T07:24:30.092Z,14.95
2022-09-30T07:25:31.547Z,15.04
2022-09-30T07:26:33.382Z,15.13
2022-09-30T07:27:35.212Z,15.16
2022-09-30T07:28:38.874Z,15.25
2022-09-30T07:30:04.263Z,15.30
2022-09-30T07:31:30.670Z,15.38
2022-09-30T07:32:28.242Z,15.45
2022-09-30T07:33:32.264Z,15.54
2022-09-30T07:34:33.747Z,15.63
2022-09-30T07:35:35.231Z,15.70
2022-09-30T07:36:37.915Z,15.77
2022-09-30T07:37:39.543Z,15.84
2022-09-30T07:38:41.222Z,15.90
2022-09-30T07:39:44.025Z,16.00
2022-09-30T07:40:55.044Z,16.09
2022-09-30T07:41:56.650Z,16.19
2022-09-30T07:42:58.503Z,16.30
2022-09-30T07:43:59.983Z,16.38
2022-09-30T07:45:02.104Z,16.50
2022-09-30T07:46:04.702Z,16.61
2022-09-30T07:47:06.375Z,16.70
2022-09-30T07:48:27.822Z,16.80
2022-09-30T07:49:30.055Z,16.93
2022-09-30T07:50:31.494Z,17.06
2022-09-30T07:51:34.981Z,17.17
2022-09-30T07:52:36.503Z,17.28
2022-09-30T07:53:37.990Z,17.39
2022-09-30T07:54:43.337Z,17.50
2022-09-30T07:55:46.876Z,17.65
2022-09-30T07:58:10.999Z,17.93
2022-09-30T07:59:12.608Z,18.07
2022-09-30T08:00:40.622Z,18.18
2022-09-30T08:01:35.881Z,18.38
2022-09-30T08:02:37.422Z,18.51
2022-09-30T08:03:39.811Z,18.64
2022-09-30T08:04:44.043Z,18.73
2022-09-30T08:05:46.160Z,18.87
2022-09-30T08:06:51.570Z,19.01
2022-09-30T08:07:53.058Z,19.14
2022-09-30T08:08:55.045Z,19.25
2022-09-30T08:09:56.612Z,19.36
2022-09-30T08:11:01.350Z,19.51
2022-09-30T08:12:03.981Z,19.62
2022-09-30T08:13:06.334Z,19.74
2022-09-30T08:14:07.969Z,19.89
2022-09-30T08:15:09.752Z,19.95
2022-09-30T08:16:11.262Z,20.08
2022-09-30T08:17:12.775Z,20.22
2022-09-30T08:18:14.232Z,20.35
2022-09-30T08:19:16.602Z,20.47
2022-09-30T08:20:22.333Z,20.58
2022-09-30T08:21:24.235Z,20.68
2022-09-30T08:22:25.720Z,20.80
2022-09-30T08:23:28.333Z,20.94
2022-09-30T08:24:29.841Z,21.06
2022-09-30T08:25:31.335Z,21.20
2022-09-30T08:26:32.844Z,21.31
2022-09-30T08:27:34.374Z,21.44
2022-09-30T08:28:36.068Z,21.58
2022-09-30T08:31:05.218Z,21.82
2022-09-30T08:32:06.697Z,21.98
2022-09-30T08:33:08.258Z,22.09
2022-09-30T08:34:09.762Z,22.21
2022-09-30T08:35:11.291Z,22.33
2022-09-30T08:36:13.978Z,22.41
2022-09-30T08:37:15.403Z,22.44
2022-09-30T08:38:16.824Z,22.57
2022-09-30T08:39:18.336Z,22.70
2022-09-30T08:40:21.759Z,22.84
2022-09-30T08:41:23.206Z,22.97
2022-09-30T08:42:49.136Z,23.04
2022-09-30T08:44:12.330Z,23.19
2022-09-30T08:45:46.187Z,23.33
2022-09-30T08:46:54.807Z,23.53
2022-09-30T08:49:42.646Z,23.80
2022-09-30T08:51:01.523Z,23.91
2022-09-30T08:52:03.051Z,23.98
2022-09-30T08:53:05.711Z,24.02
2022-09-30T08:54:09.891Z,24.12
2022-09-30T08:55:15.510Z,24.21
2022-09-30T08:56:21.550Z,24.36
2022-09-30T08:57:23.085Z,24.52
2022-09-30T08:58:29.979Z,24.63
2022-09-30T08:59:35.860Z,24.72
2022-09-30T09:00:37.569Z,24.78
2022-09-30T09:01:40.177Z,24.81
2022-09-30T09:02:59.579Z,24.89
2022-09-30T09:04:01.339Z,25.06
2022-09-30T09:05:03.566Z,25.18
2022-09-30T09:06:08.834Z,25.31
2022-09-30T09:07:15.704Z,25.44
2022-09-30T09:08:32.098Z,25.53
2022-09-30T09:09:48.267Z,25.59
2022-09-30T09:10:59.312Z,25.68
2022-09-30T09:12:19.492Z,25.76
2022-09-30T09:13:23.717Z,25.90
2022-09-30T09:14:31.909Z,26.00
2022-09-30T09:15:56.815Z,26.04
2022-09-30T09:17:02.306Z,26.05
2022-09-30T09:18:23.521Z,26.11
2022-09-30T09:19:25.979Z,26.21
2022-09-30T09:20:29.694Z,26.27
2022-09-30T09:22:01.860Z,26.28
2022-09-30T09:23:03.784Z,26.45
2022-09-30T09:24:05.883Z,26.50
2022-09-30T09:25:10.471Z,26.63
2022-09-30T09:26:12.679Z,26.60
2022-09-30T09:27:18.923Z,26.67
2022-09-30T09:28:21.162Z,26.74
2022-09-30T09:29:41.847Z,26.72
2022-09-30T09:30:46.187Z,26.81
2022-09-30T09:31:48.373Z,26.85
2022-09-30T09:32:51.557Z,26.82
2022-09-30T09:33:53.650Z,26.97
2022-09-30T09:35:00.537Z,27.09
2022-09-30T09:36:17.238Z,27.25
2022-09-30T09:38:03.799Z,27.33
2022-09-30T09:39:24.232Z,27.40
2022-09-30T09:40:25.877Z,27.48
2022-09-30T09:41:42.292Z,27.59
2022-09-30T09:42:52.623Z,27.66
2022-09-30T09:44:06.368Z,27.65
2022-09-30T09:45:22.787Z,27.58
2022-09-30T09:46:30.646Z,27.50
2022-09-30T09:47:32.278Z,27.42
2022-09-30T09:48:35.496Z,27.36
2022-09-30T09:49:41.046Z,27.36
2022-09-30T09:50:43.356Z,27.27
2022-09-30T09:51:47.320Z,27.23
2022-09-30T09:53:00.131Z,27.33
2022-09-30T09:54:01.733Z,27.36
2022-09-30T09:55:03.994Z,27.42
2022-09-30T09:56:18.464Z,27.47
2022-09-30T09:57:24.855Z,27.54
2022-09-30T09:58:26.434Z,27.60
2022-09-30T09:59:28.110Z,27.73
2022-09-30T10:00:47.544Z,27.83
2022-09-30T10:01:50.489Z,27.92
2022-09-30T10:02:58.762Z,27.87
2022-09-30T10:04:11.078Z,27.72
2022-09-30T10:05:25.437Z,27.76
2022-09-30T10:06:26.872Z,27.72
2022-09-30T10:07:29.290Z,27.73
2022-09-30T10:08:34.560Z,27.82
2022-09-30T10:09:37.020Z,27.80
2022-09-30T10:10:48.788Z,27.82
2022-09-30T10:11:50.227Z,27.84
2022-09-30T10:12:51.667Z,27.93
2022-09-30T10:13:59.171Z,28.01
2022-09-30T10:15:01.718Z,28.10
2022-09-30T10:16:03.374Z,28.12
2022-09-30T10:17:09.119Z,28.15
2022-09-30T10:18:16.413Z,28.13
2022-09-30T10:19:25.215Z,28.17
2022-09-30T10:20:28.173Z,28.28
2022-09-30T10:21:29.651Z,28.33
2022-09-30T10:22:31.578Z,28.53
2022-09-30T10:23:33.945Z,28.60
2022-09-30T10:24:38.551Z,28.65
2022-09-30T10:25:40.007Z,28.76
2022-09-30T10:26:47.742Z,28.94
2022-09-30T10:27:51.962Z,29.02
2022-09-30T10:28:54.813Z,29.07
2022-09-30T10:29:56.274Z,29.17
2022-09-30T10:31:04.676Z,29.13
2022-09-30T10:32:06.799Z,29.27
2022-09-30T10:33:12.326Z,29.26
2022-09-30T10:34:29.756Z,29.33
2022-09-30T10:35:31.224Z,29.43
2022-09-30T10:36:33.693Z,29.51
2022-09-30T10:37:35.407Z,29.56
2022-09-30T10:38:37.438Z,29.54
2022-09-30T10:39:39.305Z,29.44
2022-09-30T10:40:41.076Z,29.40
2022-09-30T10:41:42.546Z,29.42
2022-09-30T10:42:45.553Z,29.44
2022-09-30T10:43:48.192Z,29.46
2022-09-30T10:44:51.806Z,29.37
2022-09-30T10:46:20.800Z,29.36
2022-09-30T10:47:16.275Z,29.27
2022-09-30T10:48:18.650Z,29.18
2022-09-30T10:49:20.070Z,29.20
2022-09-30T10:50:22.399Z,29.15
2022-09-30T10:51:28.646Z,29.10
2022-09-30T10:52:34.866Z,29.14
2022-09-30T10:53:37.226Z,29.21
2022-09-30T10:54:51.464Z,29.22
2022-09-30T10:55:56.179Z,29.34
2022-09-30T10:56:57.644Z,29.38
2022-09-30T10:58:04.491Z,29.42
2022-09-30T10:59:26.191Z,29.35
2022-09-30T11:00:27.755Z,29.35
2022-09-30T11:01:32.511Z,29.28
2022-09-30T11:02:34.048Z,29.35
2022-09-30T11:04:05.157Z,29.44
2022-09-30T11:05:09.451Z,29.35
2022-09-30T11:06:11.292Z,29.25
2022-09-30T11:07:17.246Z,29.19
2022-09-30T11:08:25.606Z,29.07
2022-09-30T11:09:30.198Z,28.91
2022-09-30T11:10:40.342Z,28.60
2022-09-30T11:11:46.871Z,28.37
2022-09-30T11:12:49.927Z,28.23
2022-09-30T11:14:00.953Z,28.04
2022-09-30T11:15:02.506Z,27.91
2022-09-30T11:16:10.839Z,27.92
2022-09-30T11:17:28.331Z,27.85
2022-09-30T11:18:31.111Z,27.80
2022-09-30T11:19:41.631Z,27.78
2022-09-30T11:20:48.474Z,27.74
2022-09-30T11:21:54.811Z,27.72
2022-09-30T11:23:02.599Z,27.75
2022-09-30T11:24:07.639Z,27.62
2022-09-30T11:25:16.295Z,27.55
2022-09-30T11:26:20.600Z,27.58
2022-09-30T11:27:25.147Z,27.56
2022-09-30T11:28:46.881Z,27.55
2022-09-30T11:30:08.691Z,27.61
2022-09-30T11:31:28.698Z,27.63
2022-09-30T11:32:30.154Z,27.62
2022-09-30T11:33:31.577Z,27.51
2022-09-30T11:34:38.885Z,27.46
2022-09-30T11:35:46.477Z,27.34
2022-09-30T11:36:48.019Z,27.32
2022-09-30T11:38:08.611Z,27.38
2022-09-30T11:39:28.693Z,27.41
2022-09-30T11:40:50.486Z,27.31
2022-09-30T11:41:54.498Z,27.32
2022-09-30T11:43:14.291Z,27.34
2022-09-30T11:44:22.033Z,27.40
2022-09-30T11:45:31.628Z,27.45
2022-09-30T11:46:33.117Z,27.49
2022-09-30T11:47:37.543Z,27.50
2022-09-30T11:48:46.384Z,27.50
2022-09-30T11:49:47.819Z,27.47
2022-09-30T11:51:07.879Z,27.44
2022-09-30T11:52:24.651Z,27.43
2022-09-30T11:53:35.618Z,27.30
2022-09-30T11:54:37.023Z,27.22
2022-09-30T11:55:41.462Z,27.23
2022-09-30T11:56:57.546Z,27.24
2022-09-30T11:58:36.562Z,27.21
2022-09-30T11:59:43.352Z,27.11
2022-09-30T12:00:47.412Z,27.11
2022-09-30T12:01:49.995Z,27.06
2022-09-30T12:02:51.927Z,26.81
2022-09-30T12:04:19.455Z,26.69
2022-09-30T12:05:28.734Z,26.64
2022-09-30T12:06:34.890Z,26.64
2022-09-30T12:07:40.689Z,26.62
2022-09-30T12:08:44.483Z,26.48
2022-09-30T12:09:45.879Z,26.39
2022-09-30T12:10:53.035Z,26.09
2022-09-30T12:12:02.094Z,26.13
2022-09-30T12:13:04.860Z,26.05
2022-09-30T12:14:09.764Z,26.01
2022-09-30T12:15:15.477Z,25.97
2022-09-30T12:16:19.612Z,25.85
2022-09-30T12:17:26.765Z,25.71
2022-09-30T12:18:32.740Z,25.69
2022-09-30T12:19:36.215Z,25.71
2022-09-30T12:20:42.503Z,25.70
2022-09-30T12:21:49.705Z,25.69
2022-09-30T12:22:52.048Z,25.73
2022-09-30T12:24:00.777Z,25.77
2022-09-30T12:25:03.139Z,25.73
2022-09-30T12:26:04.796Z,25.56
2022-09-30T12:27:15.429Z,25.55
2022-09-30T12:28:54.414Z,25.60
2022-09-30T12:30:16.816Z,25.32
2022-09-30T12:31:21.087Z,25.30
2022-09-30T12:32:41.375Z,25.34
2022-09-30T12:33:50.848Z,25.39
2022-09-30T12:35:01.367Z,25.40
2022-09-30T12:36:03.605Z,25.42
2022-09-30T12:37:05.084Z,25.44
2022-09-30T12:38:15.832Z,25.46
2022-09-30T12:39:36.250Z,25.47
2022-09-30T12:40:43.271Z,25.48
2022-09-30T12:41:51.033Z,25.47
2022-09-30T12:43:11.419Z,25.43
2022-09-30T12:44:16.698Z,25.41
2022-09-30T12:45:18.147Z,25.43
2022-09-30T12:46:39.829Z,25.43
2022-09-30T12:47:45.950Z,25.44
2022-09-30T12:48:55.862Z,25.44
2022-09-30T12:49:58.104Z,25.22
2022-09-30T12:50:59.779Z,25.17
2022-09-30T12:52:03.499Z,25.17
2022-09-30T12:53:18.518Z,25.13
2022-09-30T12:54:31.599Z,25.08
2022-09-30T12:55:39.916Z,25.05
2022-09-30T12:56:41.960Z,25.05
2022-09-30T12:57:43.463Z,25.00
2022-09-30T12:58:48.483Z,24.98
2022-09-30T12:59:53.885Z,24.95
2022-09-30T13:01:00.322Z,24.91
2022-09-30T13:02:03.743Z,24.87
2022-09-30T13:03:05.246Z,24.85
2022-09-30T13:04:06.660Z,24.76
2022-09-30T13:05:26.266Z,24.70
2022-09-30T13:06:29.087Z,24.64
2022-09-30T13:07:30.711Z,24.61
2022-09-30T13:08:36.827Z,24.55
2022-09-30T13:09:55.403Z,24.51
2022-09-30T13:10:58.144Z,24.44
2022-09-30T13:11:59.571Z,24.38
2022-09-30T13:13:10.002Z,24.38
2022-09-30T13:14:25.967Z,24.32
2022-09-30T13:15:30.604Z,24.31
2022-09-30T13:16:52.491Z,24.27
2022-09-30T13:17:53.934Z,24.21
2022-09-30T13:18:58.373Z,24.19
2022-09-30T13:19:59.919Z,24.17
2022-09-30T13:21:04.427Z,24.13
2022-09-30T13:22:18.244Z,24.12
2022-09-30T13:23:35.663Z,24.14
2022-09-30T13:25:05.810Z,24.11
2022-09-30T13:26:22.386Z,24.04
2022-09-30T13:27:35.699Z,23.99
2022-09-30T13:28:37.602Z,23.98
2022-09-30T13:29:45.835Z,23.96
2022-09-30T13:30:47.344Z,23.84
2022-09-30T13:31:49.265Z,23.86
2022-09-30T13:32:57.543Z,23.84
2022-09-30T13:34:02.037Z,23.79
2022-09-30T13:35:15.512Z,23.66
2022-09-30T13:36:18.355Z,23.62
2022-09-30T13:37:31.191Z,23.59
2022-09-30T13:38:38.038Z,23.46
2022-09-30T13:39:46.097Z,23.44
2022-09-30T13:41:04.222Z,23.46
2022-09-30T13:42:08.474Z,23.45
2022-09-30T13:43:15.523Z,23.44
2022-09-30T13:44:19.795Z,23.46
2022-09-30T13:45:23.064Z,23.45
2022-09-30T13:46:24.611Z,23.46
2022-09-30T13:47:44.427Z,23.48
2022-09-30T13:48:48.774Z,23.40
2022-09-30T13:49:52.521Z,23.43
2022-09-30T13:50:54.307Z,23.44
2022-09-30T13:51:55.838Z,23.48
2022-09-30T13:53:02.511Z,23.53
2022-09-30T13:54:08.612Z,23.50
2022-09-30T13:55:28.551Z,23.53
2022-09-30T13:56:34.231Z,23.51
2022-09-30T13:57:43.643Z,23.38
2022-09-30T13:59:05.113Z,23.38
2022-09-30T14:00:07.369Z,23.32
2022-09-30T14:01:53.587Z,23.13
2022-09-30T14:03:27.364Z,22.93
2022-09-30T14:04:34.666Z,22.85
2022-09-30T14:05:48.212Z,22.82
2022-09-30T14:07:11.266Z,22.88
2022-09-30T14:08:12.744Z,22.90
2022-09-30T14:09:33.003Z,22.89
2022-09-30T14:10:43.856Z,22.86
2022-09-30T14:12:08.786Z,22.90
2022-09-30T14:13:28.566Z,22.94